map of NZPG home
Great Circle Mapper logo
NZPG - Airport
Location
City:  McMurdo Station, Ross Island, Antarctica
Name:Pegasus Field
ICAO:NZPG

Details
Type:Airport (Aerodrome, Airfield)
Latitude:77°57'48"S (-77.963440)
Longitude:166°31'29"E (166.524609)
Datum:other
Elevation:18 ft (5 m)
Variation:143.3°E (WMM2010 magnetic declination)
Runways:1
Longest:10000 × 220 ft (3048 × 67 m)

Time
Time Zone:UTC+12 (DST+13)
Local Time:

Weather
METAR:NZPG 220155Z 12010KT 9999 FEW200 M07/M16 A2913 RMK SLP867 LSR11 GRID29010KT SDG/HDG

Related Locations
Nearby:
Farthest:ENAS: 12075 mi / 19433 km
Ny-Ålesund [Ny-Ålesund Hamnerabben (Broggerhalvoya)], Svalbard, NO

Find:

   beyond  
but within

Other Information
Maps:
NOTAMs:
Links:
Sources:

  

Sectional Chart

Flight Planning
at skyvector.com

Satellite Image

Google Maps Satellite View

 

Copyright © 2004-2014 Karl L. Swartz. All rights reserved.
The Great Circle Mapper name and logo are trademarks of the Great Circle Mapper.
All other trademarks mentioned herein belong to their respective owners.
Please see credits for attibutions and further copyright information.

  Follow gcmap on Facebook Follow gcmap on Twitter

hCard Microformat

Geo Microformat